Time;durP1;ratioP1;P1;durP2;ratioP2;P2;SDS_P1;SDS_P2;PMS_P1;PMS_P2;Temp;Humidity;BMP_temperature;BMP_pressure;BME280_temperature;BME280_humidity;BME280_pressure;Samples;Min_cycle;Max_cycle;Signal;HPM_P1;HPM_P2
2023/02/25 00:02:18;;;;;;;;;24.00;22.00;;;;;7.66;100.00;100650.69;5055423;28;45982;-77
2023/02/25 00:04:43;;;;;;;;;29.00;25.75;;;;;7.57;100.00;100649.81;5050125;28;47020;-77
2023/02/25 00:07:08;;;;;;;;;26.67;23.67;;;;;7.57;100.00;100651.63;5058355;28;45331;-77
2023/02/25 00:09:34;;;;;;;;;25.00;23.00;;;;;7.59;100.00;100660.25;5059985;28;45527;-77
2023/02/25 00:12:00;;;;;;;;;23.00;23.00;;;;;7.61;100.00;100646.88;5061286;28;45579;-77
2023/02/25 00:14:25;;;;;;;;;28.33;23.67;;;;;7.69;100.00;100654.84;5061219;28;45366;-77
2023/02/25 00:16:54;;;;;;;;;26.33;24.33;;;;;7.79;100.00;100660.03;5060291;28;46212;-77
2023/02/25 00:19:20;;;;;;;;;32.33;24.67;;;;;7.80;100.00;100645.81;5061131;28;45357;-77
2023/02/25 00:21:45;;;;;;;;;26.33;26.33;;;;;7.89;100.00;100660.75;5060995;28;45292;-77
2023/02/25 00:24:11;;;;;;;;;32.75;29.00;;;;;8.01;100.00;100658.66;5059384;28;47252;-77
2023/02/25 00:26:36;;;;;;;;;22.67;22.33;;;;;8.06;100.00;100648.38;5061195;28;45291;-77
2023/02/25 00:29:01;;;;;;;;;33.25;30.25;;;;;8.11;100.00;100647.91;5059866;28;45339;-77
2023/02/25 00:31:27;;;;;;;;;27.33;24.33;;;;;8.22;100.00;100662.69;5061265;28;45525;-77
2023/02/25 00:33:52;;;;;;;;;28.00;24.67;;;;;8.19;100.00;100647.97;5059649;28;47211;-78
2023/02/25 00:36:22;;;;;;;;;31.67;27.00;;;;;8.29;100.00;100652.28;5060029;28;45279;-77
2023/02/25 00:38:52;;;;;;;;;37.75;32.25;;;;;8.35;100.00;100648.97;5061129;28;45347;-77
2023/02/25 00:41:24;;;;;;;;;34.00;29.00;;;;;8.41;100.00;100658.13;5060832;28;45559;-77
2023/02/25 00:43:55;;;;;;;;;30.67;28.33;;;;;8.47;100.00;100670.69;5059300;28;47127;-77
2023/02/25 00:46:20;;;;;;;;;25.67;23.67;;;;;8.45;100.00;100656.78;5060959;28;45454;-77
2023/02/25 00:48:46;;;;;;;;;30.67;26.67;;;;;8.51;100.00;100652.66;5060973;28;45232;-77
2023/02/25 00:51:18;;;;;;;;;30.50;27.25;;;;;8.57;100.00;100660.84;5060795;28;45647;-77
2023/02/25 00:53:44;;;;;;;;;28.00;25.67;;;;;8.62;100.00;100668.28;5059424;28;47504;-77
2023/02/25 00:56:15;;;;;;;;;23.67;20.00;;;;;8.66;100.00;100671.44;5059152;28;45425;-77
2023/02/25 00:58:42;;;;;;;;;26.67;26.67;;;;;8.58;100.00;100651.88;5060624;28;45403;-78
2023/02/25 01:01:21;;;;;;;;;29.00;23.33;;;;;8.66;100.00;100650.22;5060585;28;45303;-77
2023/02/25 01:03:48;;;;;;;;;26.00;21.33;;;;;8.70;100.00;100656.84;5059255;28;46898;-77
2023/02/25 01:06:14;;;;;;;;;26.00;24.33;;;;;8.65;100.00;100648.59;5060537;28;45394;-77
2023/02/25 01:08:40;;;;;;;;;25.00;24.67;;;;;8.77;100.00;100662.34;5059373;28;45323;-77
2023/02/25 01:11:19;;;;;;;;;28.00;23.33;;;;;8.88;100.00;100666.47;5060433;28;45417;-77
2023/02/25 01:13:46;;;;;;;;;24.33;23.67;;;;;8.65;100.00;100644.09;5059213;28;47040;-77
2023/02/25 01:16:20;;;;;;;;;21.00;19.67;;;;;8.68;100.00;100649.06;5041546;28;45437;-77
2023/02/25 01:18:46;;;;;;;;;23.00;23.00;;;;;8.79;100.00;100661.19;5053659;28;45332;-77
2023/02/25 01:21:25;;;;;;;;;21.67;19.67;;;;;8.81;100.00;100668.97;5059993;28;45638;-77
2023/02/25 01:23:58;;;;;;;;;22.00;19.33;;;;;8.81;100.00;100661.84;5060223;28;46460;-77
2023/02/25 01:26:25;;;;;;;;;19.00;17.67;;;;;8.77;100.00;100649.91;5058650;28;45408;-77
2023/02/25 01:28:51;;;;;;;;;22.67;18.67;;;;;8.79;100.00;100655.88;5058783;28;45350;-77
2023/02/25 01:31:18;;;;;;;;;20.00;17.00;;;;;8.77;100.00;100644.59;5058822;28;45832;-77
2023/02/25 01:33:44;;;;;;;;;21.00;17.33;;;;;8.79;100.00;100650.59;5059936;28;46207;-78
2023/02/25 01:36:09;;;;;;;;;21.00;18.67;;;;;8.87;100.00;100656.88;5058712;28;45462;-77
2023/02/25 01:38:35;;;;;;;;;19.33;16.67;;;;;8.83;100.00;100651.09;5060170;28;47023;-77
2023/02/25 01:41:01;;;;;;;;;19.00;16.67;;;;;8.86;100.00;100655.22;5058465;28;47130;-77
2023/02/25 01:43:27;;;;;;;;;18.00;17.67;;;;;8.84;100.00;100648.25;5059699;28;45708;-77
2023/02/25 01:45:53;;;;;;;;;23.67;20.00;;;;;8.82;100.00;100652.91;5060062;28;45400;-77
2023/02/25 01:48:23;;;;;;;;;15.33;13.67;;;;;8.82;100.00;100650.25;5060101;28;45399;-77
2023/02/25 01:50:53;;;;;;;;;19.00;13.33;;;;;8.87;100.00;100657.72;5059875;28;45381;-77
2023/02/25 01:53:26;;;;;;;;;13.67;12.67;;;;;8.86;100.00;100656.03;5059502;28;46639;-78
2023/02/25 01:55:52;;;;;;;;;12.00;12.00;;;;;8.82;100.00;100646.75;5058217;28;45402;-77
2023/02/25 01:58:19;;;;;;;;;14.67;12.67;;;;;8.73;100.00;100643.28;5058363;28;45405;-77
2023/02/25 02:00:45;;;;;;;;;14.00;12.67;;;;;9.01;100.00;100644.78;5058512;28;45398;-77
2023/02/25 02:03:15;;;;;;;;;14.00;13.00;;;;;8.65;100.00;100644.09;5057999;28;47114;-77
2023/02/25 02:05:58;;;;;;;;;13.00;11.33;;;;;8.58;100.00;100648.41;5058556;28;45692;-77
2023/02/25 02:08:25;;;;;;;;;11.33;10.00;;;;;8.42;100.00;100635.94;5047629;28;45286;-77
2023/02/25 02:10:51;;;;;;;;;11.33;9.00;;;;;8.41;100.00;100648.34;5057892;28;45445;-77
2023/02/25 02:13:17;;;;;;;;;11.00;10.67;;;;;8.37;100.00;100649.66;5059398;28;45568;-77
2023/02/25 02:15:58;;;;;;;;;13.00;10.67;;;;;8.34;100.00;100652.63;5058192;28;45399;-77
2023/02/25 02:18:29;;;;;;;;;10.00;7.33;;;;;8.26;100.00;100647.31;5059899;28;45568;-77
2023/02/25 02:21:09;;;;;;;;;10.33;9.33;;;;;8.23;100.00;100651.09;5058098;28;46514;-77
2023/02/25 02:24:09;;;;;;;;;7.67;7.67;;;;;8.21;100.00;100656.53;5057921;28;47145;-77
2023/02/25 02:26:51;;;;;;;;;7.67;7.67;;;;;8.17;100.00;100651.75;5048455;28;45409;-77
2023/02/25 02:29:45;;;;;;;;;10.00;7.33;;;;;8.09;100.00;100652.56;5068136;27;45441;-77
2023/02/25 02:32:26;;;;;;;;;11.33;9.67;;;;;8.00;100.00;100651.69;5055750;28;45341;-77
2023/02/25 02:35:13;;;;;;;;;10.00;10.00;;;;;7.96;100.00;100647.69;5057749;28;46983;-76
2023/02/25 02:37:47;;;;;;;;;11.67;11.67;;;;;7.78;100.00;100629.28;5058136;28;45288;-77
2023/02/25 02:40:26;;;;;;;;;11.33;9.33;;;;;7.85;100.00;100646.19;5057867;28;45473;-77
2023/02/25 02:43:07;;;;;;;;;11.00;8.00;;;;;7.79;100.00;100646.81;5057513;28;47277;-77
2023/02/25 02:45:46;;;;;;;;;9.00;8.33;;;;;7.72;100.00;100637.84;5059109;28;45572;-78
2023/02/25 02:48:17;;;;;;;;;8.67;6.67;;;;;7.74;100.00;100654.38;5057641;28;45823;-77
2023/02/25 02:51:05;;;;;;;;;11.00;9.33;;;;;7.66;100.00;100652.53;5057755;28;45459;-77
2023/02/25 02:53:40;;;;;;;;;9.00;6.67;;;;;7.65;100.00;100653.50;5053245;28;46006;-77
2023/02/25 02:56:10;;;;;;;;;8.33;8.33;;;;;7.56;100.00;100642.88;5051108;28;48562;-77
2023/02/25 02:58:38;;;;;;;;;4.00;4.00;;;;;7.58;100.00;100659.41;5065618;28;45415;-77
2023/02/25 03:01:12;;;;;;;;;7.67;6.00;;;;;7.52;100.00;100651.28;5050614;27;45260;-76
2023/02/25 03:03:45;;;;;;;;;7.67;6.67;;;;;7.53;100.00;100650.28;5057478;28;45306;-79
2023/02/25 03:06:16;;;;;;;;;8.33;7.33;;;;;7.51;100.00;100657.56;5058704;28;46342;-79
2023/02/25 03:08:46;;;;;;;;;8.33;6.33;;;;;7.44;100.00;100652.06;5058871;28;45496;-79
2023/02/25 03:11:12;;;;;;;;;7.00;5.00;;;;;7.40;100.00;100653.38;5058709;28;45271;-79
2023/02/25 03:13:38;;;;;;;;;5.00;5.00;;;;;7.44;100.00;100663.47;5058867;28;45273;-79
2023/02/25 03:16:08;;;;;;;;;8.00;5.67;;;;;7.42;100.00;100662.78;5057180;28;46827;-79
2023/02/25 03:18:33;;;;;;;;;5.00;5.00;;;;;7.38;100.00;100669.38;5058927;28;45492;-79
2023/02/25 03:21:02;;;;;;;;;7.67;5.33;;;;;7.34;100.00;100662.75;5058549;28;45369;-79
2023/02/25 03:23:31;;;;;;;;;7.33;5.00;;;;;7.27;100.00;100651.94;5057317;28;45999;-79
2023/02/25 03:26:17;;;;;;;;;8.67;5.00;;;;;7.37;100.00;100661.59;5058201;28;45445;-80
2023/02/25 03:28:45;;;;;;;;;8.00;6.33;;;;;7.42;100.00;100669.88;5057133;28;45381;-79
2023/02/25 03:31:23;;;;;;;;;7.00;6.33;;;;;7.47;100.00;100677.34;5057288;28;45362;-80
2023/02/25 03:34:12;;;;;;;;;5.67;4.67;;;;;7.45;100.00;100670.41;5058279;28;45229;-79
2023/02/25 03:36:43;;;;;;;;;7.67;5.67;;;;;7.51;100.00;100665.50;5057947;28;45362;-79
2023/02/25 03:39:13;;;;;;;;;9.00;7.00;;;;;7.39;100.00;100660.47;5057140;28;45577;-79
2023/02/25 03:41:43;;;;;;;;;8.67;5.33;;;;;7.41;100.00;100661.16;5058138;28;45483;-79
2023/02/25 03:44:13;;;;;;;;;6.67;4.00;;;;;7.37;100.00;100657.16;5061785;28;45293;-79
2023/02/25 03:46:43;;;;;;;;;9.33;5.00;;;;;7.36;100.00;100666.06;5061593;28;45585;-79
2023/02/25 03:49:17;;;;;;;;;10.33;8.33;;;;;7.27;100.00;100656.44;5060479;28;45358;-79
2023/02/25 03:51:47;;;;;;;;;5.00;4.00;;;;;7.32;100.00;100667.34;5061727;28;45235;-77
2023/02/25 03:54:15;;;;;;;;;6.33;5.00;;;;;7.31;100.00;100679.72;5060270;28;46269;-79
2023/02/25 03:56:48;;;;;;;;;7.67;5.00;;;;;7.26;100.00;100665.31;5061137;28;47317;-79
2023/02/25 03:59:14;;;;;;;;;6.00;6.00;;;;;7.20;100.00;100666.78;5061623;28;45415;-80
2023/02/25 04:01:43;;;;;;;;;8.00;5.00;;;;;7.19;100.00;100673.88;5061630;28;45391;-79
2023/02/25 04:04:09;;;;;;;;;4.00;3.33;;;;;7.16;100.00;100676.00;5061699;28;45260;-79
2023/02/25 04:06:34;;;;;;;;;6.00;5.00;;;;;7.11;100.00;100673.81;5061341;28;45611;-79
2023/02/25 04:08:59;;;;;;;;;7.33;5.67;;;;;7.11;100.00;100683.53;5061800;28;45306;-80
2023/02/25 04:11:25;;;;;;;;;9.00;8.00;;;;;7.00;100.00;100666.13;5061377;28;45582;-79
2023/02/25 04:13:50;;;;;;;;;6.67;6.00;;;;;7.06;100.00;100682.19;5061472;28;45371;-79
2023/02/25 04:16:16;;;;;;;;;8.33;5.33;;;;;7.05;100.00;100688.47;5059989;28;47239;-78
2023/02/25 04:18:41;;;;;;;;;6.67;4.33;;;;;7.02;100.00;100683.50;5061583;28;45628;-79
2023/02/25 04:21:08;;;;;;;;;4.33;4.33;;;;;7.04;100.00;100699.19;5060110;28;45397;-79
2023/02/25 04:23:34;;;;;;;;;6.33;4.33;;;;;6.94;100.00;100692.16;5059930;28;47153;-79
2023/02/25 04:26:00;;;;;;;;;7.33;6.67;;;;;6.98;100.00;100703.28;5059358;28;47230;-79
2023/02/25 04:28:26;;;;;;;;;4.67;4.67;;;;;7.01;100.00;100704.78;5059781;28;45883;-79
2023/02/25 04:30:51;;;;;;;;;7.33;6.00;;;;;7.04;100.00;100704.47;5059877;28;45229;-79
2023/02/25 04:33:17;;;;;;;;;8.67;7.00;;;;;7.02;100.00;100698.50;5061426;28;45666;-79
2023/02/25 04:35:43;;;;;;;;;6.33;5.00;;;;;7.09;100.00;100706.66;5059430;28;48077;-79
2023/02/25 04:38:08;;;;;;;;;4.33;4.00;;;;;7.02;100.00;100698.50;5061167;28;45301;-79
2023/02/25 04:40:34;;;;;;;;;4.67;4.67;;;;;7.04;100.00;100696.56;5059661;28;45297;-79
2023/02/25 04:42:59;;;;;;;;;5.67;5.67;;;;;7.04;100.00;100693.91;5060525;28;45528;-79
2023/02/25 04:45:25;;;;;;;;;9.67;5.00;;;;;6.99;100.00;100696.16;5060922;28;45313;-79
2023/02/25 04:47:56;;;;;;;;;4.33;4.33;;;;;7.04;100.00;100700.00;5061106;28;45381;-79
2023/02/25 04:50:22;;;;;;;;;4.67;4.67;;;;;7.05;100.00;100698.19;5059751;28;45441;-80
2023/02/25 04:52:48;;;;;;;;;3.67;3.67;;;;;7.07;100.00;100698.91;5060338;28;45538;-78
2023/02/25 04:55:13;;;;;;;;;4.00;4.00;;;;;7.07;100.00;100709.47;5060487;28;45555;-79
2023/02/25 04:57:41;;;;;;;;;10.67;6.00;;;;;7.02;100.00;100702.00;5060869;28;45295;-79
2023/02/25 05:00:11;;;;;;;;;3.33;3.33;;;;;6.97;100.00;100704.25;5059326;28;45402;-79
2023/02/25 05:02:36;;;;;;;;;3.67;3.67;;;;;6.92;100.00;100702.03;5059490;28;46286;-79
2023/02/25 05:05:01;;;;;;;;;6.00;5.33;;;;;6.93;100.00;100702.88;5059135;28;47105;-79
2023/02/25 05:07:27;;;;;;;;;5.67;5.00;;;;;6.89;100.00;100706.81;5060827;28;45663;-79
2023/02/25 05:09:52;;;;;;;;;5.00;4.33;;;;;6.91;100.00;100708.31;5059723;28;45619;-79
2023/02/25 05:12:17;;;;;;;;;7.67;6.67;;;;;6.96;100.00;100713.16;5052986;28;45976;-79
2023/02/25 05:14:43;;;;;;;;;5.00;5.00;;;;;6.92;100.00;100696.75;5060556;28;46538;-79
2023/02/25 05:17:08;;;;;;;;;8.00;7.00;;;;;6.91;100.00;100699.56;5059266;28;45816;-79
2023/02/25 05:19:34;;;;;;;;;6.67;5.00;;;;;6.95;100.00;100706.22;5059430;28;45328;-79
2023/02/25 05:21:59;;;;;;;;;7.33;5.67;;;;;6.86;100.00;100700.03;5059123;28;46086;-79
2023/02/25 05:24:25;;;;;;;;;8.67;8.67;;;;;6.87;100.00;100693.75;5060167;28;46462;-79
2023/02/25 05:26:50;;;;;;;;;7.67;6.67;;;;;6.84;100.00;100709.06;5058855;28;45873;-79
2023/02/25 05:29:16;;;;;;;;;6.67;5.33;;;;;6.73;100.00;100703.03;5059022;28;45419;-79
2023/02/25 05:31:41;;;;;;;;;4.00;3.67;;;;;6.74;100.00;100707.34;5060462;28;45467;-79
2023/02/25 05:34:06;;;;;;;;;4.33;4.33;;;;;6.67;100.00;100716.81;5059856;28;46505;-79
2023/02/25 05:36:32;;;;;;;;;9.67;7.33;;;;;6.59;100.00;100717.59;5060343;28;45397;-79
2023/02/25 05:38:58;;;;;;;;;5.33;5.33;;;;;6.62;100.00;100719.09;5059065;28;45379;-79
2023/02/25 05:41:24;;;;;;;;;5.33;5.00;;;;;6.60;100.00;100718.41;5059922;28;45387;-79
2023/02/25 05:43:50;;;;;;;;;4.67;4.67;;;;;6.58;100.00;100710.63;5059710;28;46594;-78
2023/02/25 05:46:16;;;;;;;;;3.67;3.67;;;;;6.53;100.00;100708.44;5058809;28;45343;-78
2023/02/25 05:48:45;;;;;;;;;7.00;7.00;;;;;6.53;100.00;100716.34;5060078;28;45282;-77
2023/02/25 05:51:15;;;;;;;;;4.33;4.33;;;;;6.49;100.00;100712.34;5058790;28;47119;-78
2023/02/25 05:53:43;;;;;;;;;5.00;4.33;;;;;6.39;100.00;100716.84;5047198;28;45520;-77
2023/02/25 05:56:12;;;;;;;;;4.67;3.67;;;;;6.31;100.00;100717.59;5059567;28;45471;-77
2023/02/25 05:58:37;;;;;;;;;5.33;5.33;;;;;6.24;100.00;100724.44;5059948;28;45373;-77
2023/02/25 06:01:10;;;;;;;;;7.33;4.00;;;;;6.20;100.00;100723.91;5059412;28;45444;-77
2023/02/25 06:03:36;;;;;;;;;9.33;7.33;;;;;6.11;100.00;100703.66;5059197;28;45394;-77
2023/02/25 06:06:02;;;;;;;;;6.67;4.33;;;;;6.08;100.00;100710.06;5059410;28;45445;-77
2023/02/25 06:08:27;;;;;;;;;8.00;7.33;;;;;6.10;100.00;100718.66;5059814;28;45405;-77
2023/02/25 06:10:53;;;;;;;;;5.33;3.67;;;;;6.04;100.00;100701.59;5058111;28;46000;-77
2023/02/25 06:13:18;;;;;;;;;6.67;5.33;;;;;6.05;100.00;100702.44;5058327;28;47990;-77
2023/02/25 06:15:43;;;;;;;;;3.67;3.67;;;;;6.10;100.00;100708.09;5059607;28;45291;-77
2023/02/25 06:18:09;;;;;;;;;13.33;9.00;;;;;6.11;100.00;100714.22;5066263;28;45435;-77
2023/02/25 06:20:34;;;;;;;;;3.00;3.00;;;;;6.08;100.00;100711.88;5063871;28;45988;-77
2023/02/25 06:23:01;;;;;;;;;4.67;3.33;;;;;6.07;100.00;100711.03;5057510;28;48075;-78
2023/02/25 06:25:28;;;;;;;;;5.67;5.33;;;;;6.04;100.00;100708.69;5059235;28;45144;-77
2023/02/25 06:27:58;;;;;;;;;7.00;4.00;;;;;6.02;100.00;100721.97;5059515;28;45234;-77
2023/02/25 06:30:23;;;;;;;;;8.00;7.67;;;;;5.99;100.00;100718.81;5059225;28;45474;-77
2023/02/25 06:32:49;;;;;;;;;5.33;5.33;;;;;5.99;100.00;100719.63;5057959;28;47003;-77
2023/02/25 06:35:14;;;;;;;;;9.00;7.33;;;;;5.98;100.00;100715.34;5059268;28;45465;-77
2023/02/25 06:37:40;;;;;;;;;4.00;4.00;;;;;6.00;100.00;100723.09;5059582;28;45374;-77
2023/02/25 06:40:06;;;;;;;;;3.67;3.67;;;;;5.95;100.00;100710.34;5059166;28;45552;-77
2023/02/25 06:42:32;;;;;;;;;9.00;7.00;;;;;6.00;100.00;100721.31;5058979;28;45389;-77
2023/02/25 06:44:57;;;;;;;;;8.33;6.67;;;;;5.98;100.00;100715.34;5059031;28;45240;-79
2023/02/25 06:47:23;;;;;;;;;8.00;6.33;;;;;6.03;100.00;100728.09;5059426;28;45295;-77
2023/02/25 06:49:48;;;;;;;;;7.00;7.00;;;;;5.98;100.00;100731.16;5057601;28;46087;-77
2023/02/25 06:52:14;;;;;;;;;8.00;7.00;;;;;5.96;100.00;100727.84;5057506;28;48021;-77
2023/02/25 06:54:39;;;;;;;;;6.67;6.67;;;;;5.91;100.00;100728.28;5054373;28;46426;-78
2023/02/25 06:57:04;;;;;;;;;10.00;8.00;;;;;5.93;100.00;100731.59;5054624;28;45453;-78
2023/02/25 06:59:29;;;;;;;;;8.00;8.00;;;;;5.97;100.00;100741.88;5050022;28;45456;-78
2023/02/25 07:01:55;;;;;;;;;8.33;8.33;;;;;5.93;100.00;100747.41;5058945;28;46458;-78
2023/02/25 07:04:20;;;;;;;;;9.00;8.33;;;;;5.94;100.00;100750.91;5058802;28;45396;-77
2023/02/25 07:06:45;;;;;;;;;9.33;8.00;;;;;5.93;100.00;100746.63;5059161;28;45496;-76
2023/02/25 07:09:11;;;;;;;;;7.00;6.00;;;;;5.88;100.00;100749.69;5057511;28;46234;-79
2023/02/25 07:11:37;;;;;;;;;9.00;5.33;;;;;6.00;100.00;100765.31;5058824;28;45352;-78
2023/02/25 07:14:04;;;;;;;;;7.00;7.00;;;;;5.97;100.00;100753.25;5058689;28;45549;-77
2023/02/25 07:16:33;;;;;;;;;9.67;8.33;;;;;6.05;100.00;100763.13;5061532;28;45290;-78
2023/02/25 07:19:00;;;;;;;;;9.67;8.00;;;;;5.97;100.00;100744.50;5060903;28;47097;-78
2023/02/25 07:21:28;;;;;;;;;10.67;7.67;;;;;6.05;100.00;100745.47;5062197;28;45436;-77
2023/02/25 07:23:53;;;;;;;;;4.00;4.00;;;;;6.06;100.00;100748.94;5062220;28;46485;-78
2023/02/25 07:26:19;;;;;;;;;6.00;6.00;;;;;6.10;100.00;100755.59;5062180;28;45358;-79
2023/02/25 07:28:44;;;;;;;;;4.67;4.33;;;;;6.07;100.00;100750.59;5062130;28;45559;-77
2023/02/25 07:31:16;;;;;;;;;6.33;6.33;;;;;6.09;100.00;100750.47;5062077;28;45325;-77
2023/02/25 07:33:41;;;;;;;;;5.33;4.00;;;;;6.15;100.00;100763.09;5062125;28;46175;-77
2023/02/25 07:36:08;;;;;;;;;7.00;7.00;;;;;6.14;100.00;100756.97;5062207;28;45512;-77
2023/02/25 07:38:33;;;;;;;;;7.00;4.67;;;;;6.16;100.00;100765.59;5062022;28;45295;-77
2023/02/25 07:41:07;;;;;;;;;6.33;4.00;;;;;6.23;100.00;100779.06;5061723;28;46544;-77
2023/02/25 07:43:32;;;;;;;;;9.00;5.67;;;;;6.22;100.00;100774.72;5059372;28;45373;-77
2023/02/25 07:45:58;;;;;;;;;5.33;4.00;;;;;6.21;100.00;100767.78;5060043;28;45435;-77
2023/02/25 07:48:23;;;;;;;;;6.67;6.00;;;;;6.26;100.00;100773.44;5061319;28;45437;-77
2023/02/25 07:50:48;;;;;;;;;5.33;5.33;;;;;6.34;100.00;100780.66;5052583;28;48080;-78
2023/02/25 07:53:14;;;;;;;;;6.00;4.67;;;;;6.37;100.00;100779.56;5058807;28;45400;-76
2023/02/25 07:55:43;;;;;;;;;7.33;7.33;;;;;6.43;100.00;100782.44;5061877;28;45434;-77
2023/02/25 07:58:10;;;;;;;;;3.00;2.00;;;;;6.47;100.00;100787.41;5060269;28;46322;-76
2023/02/25 08:00:37;;;;;;;;;3.00;3.00;;;;;6.48;100.00;100774.06;5061458;28;46230;-78
2023/02/25 08:03:03;;;;;;;;;7.67;6.33;;;;;6.55;100.00;100776.94;5061461;28;45438;-77
2023/02/25 08:05:32;;;;;;;;;7.67;5.67;;;;;6.56;100.00;100776.78;5061598;28;45446;-79
2023/02/25 08:07:57;;;;;;;;;4.67;4.00;;;;;6.69;100.00;100780.91;5061304;28;45255;-77
2023/02/25 08:10:22;;;;;;;;;4.00;4.00;;;;;6.78;100.00;100785.31;5061596;28;45322;-78
2023/02/25 08:12:48;;;;;;;;;9.67;4.00;;;;;6.87;100.00;100790.69;5059722;28;45247;-77
2023/02/25 08:15:13;;;;;;;;;3.67;2.33;;;;;6.88;100.00;100790.53;5061739;28;45229;-77
2023/02/25 08:17:38;;;;;;;;;4.67;4.00;;;;;6.93;100.00;100793.56;5059704;28;46113;-78
2023/02/25 08:20:04;;;;;;;;;3.00;3.00;;;;;7.02;100.00;100801.56;5059967;28;45989;-76
2023/02/25 08:22:30;;;;;;;;;3.33;3.33;;;;;7.00;100.00;100793.78;5061246;28;45450;-77
2023/02/25 08:24:55;;;;;;;;;2.67;2.33;;;;;7.05;100.00;100796.00;5058964;28;45438;-77
2023/02/25 08:27:21;;;;;;;;;3.00;3.00;;;;;7.10;100.00;100801.69;5058836;28;45990;-76
2023/02/25 08:29:46;;;;;;;;;2.00;2.00;;;;;7.12;100.00;100790.94;5061358;28;45390;-77
2023/02/25 08:32:11;;;;;;;;;8.33;5.00;;;;;7.23;100.00;100797.81;5059498;28;45613;-77
2023/02/25 08:34:37;;;;;;;;;3.33;2.67;;;;;7.25;100.00;100791.41;5061315;28;45468;-77
2023/02/25 08:37:02;;;;;;;;;3.00;3.00;;;;;7.31;100.00;100790.78;5042519;28;47021;-76
2023/02/25 08:39:28;;;;;;;;;4.33;3.33;;;;;7.41;100.00;100793.38;5060233;28;45580;-77
2023/02/25 08:41:54;;;;;;;;;2.33;2.33;;;;;7.40;100.00;100791.72;5059870;28;45418;-76
2023/02/25 08:44:19;;;;;;;;;4.67;3.00;;;;;7.40;100.00;100798.81;5052111;28;45578;-77
2023/02/25 08:46:45;;;;;;;;;4.00;1.67;;;;;7.35;100.00;100787.84;5050938;28;46073;-77
2023/02/25 08:49:11;;;;;;;;;2.67;2.00;;;;;7.32;100.00;100792.47;5040107;28;45512;-77
2023/02/25 08:51:37;;;;;;;;;2.33;2.33;;;;;7.38;100.00;100806.88;5064548;28;45295;-77
2023/02/25 08:54:10;;;;;;;;;3.33;2.67;;;;;7.39;100.00;100803.25;5060652;28;45329;-77
2023/02/25 08:56:36;;;;;;;;;3.33;3.33;;;;;7.38;100.00;100785.72;5057793;28;46279;-77
2023/02/25 08:59:03;;;;;;;;;5.33;3.33;;;;;7.44;100.00;100789.56;5059093;28;45303;-77
2023/02/25 09:01:44;;;;;;;;;4.00;3.00;;;;;7.51;100.00;100795.91;5058523;28;46212;-77
2023/02/25 09:04:18;;;;;;;;;3.00;3.00;;;;;7.52;100.00;100791.47;5057684;28;45473;-78
2023/02/25 09:06:47;;;;;;;;;4.00;3.00;;;;;7.62;100.00;100799.31;5059424;28;45640;-78
2023/02/25 09:09:16;;;;;;;;;4.00;3.00;;;;;7.74;100.00;100805.19;5054755;28;47502;-79
2023/02/25 09:11:43;;;;;;;;;4.00;2.67;;;;;7.70;100.00;100781.69;5054668;28;46083;-77
2023/02/25 09:14:09;;;;;;;;;3.67;3.33;;;;;7.88;100.00;100796.69;5058899;28;45337;-79
2023/02/25 09:16:35;;;;;;;;;4.33;4.33;;;;;7.89;100.00;100790.41;5059285;28;45836;-78
2023/02/25 09:19:00;;;;;;;;;1.00;1.00;;;;;8.02;100.00;100792.63;5058945;28;48340;-77
2023/02/25 09:21:26;;;;;;;;;1.33;1.33;;;;;8.07;100.00;100792.16;5060432;28;45173;-77
2023/02/25 09:23:51;;;;;;;;;1.67;1.67;;;;;8.14;100.00;100795.84;5060315;28;45188;-79
2023/02/25 09:26:19;;;;;;;;;2.00;2.00;;;;;8.16;100.00;100795.69;5058469;28;47323;-77
2023/02/25 09:28:44;;;;;;;;;2.33;2.00;;;;;8.18;100.00;100786.63;5059015;28;47053;-77
2023/02/25 09:31:10;;;;;;;;;4.00;4.00;;;;;8.20;100.00;100782.00;5057803;28;45429;-77
2023/02/25 09:33:36;;;;;;;;;2.00;1.00;;;;;8.24;100.00;100787.81;5059354;28;45338;-77
2023/02/25 09:36:11;;;;;;;;;3.00;2.00;;;;;8.23;100.00;100788.78;5060085;28;45422;-78
2023/02/25 09:38:38;;;;;;;;;4.00;2.00;;;;;8.19;100.00;100787.44;5058483;28;47474;-78
2023/02/25 09:41:15;;;;;;;;;2.67;2.67;;;;;8.21;100.00;100788.13;5059970;28;45389;-77
2023/02/25 09:43:41;;;;;;;;;3.33;3.00;;;;;8.24;100.00;100784.31;5059947;28;45501;-76
2023/02/25 09:46:19;;;;;;;;;2.00;1.00;;;;;8.29;100.00;100793.44;5059310;28;45303;-76
2023/02/25 09:49:12;;;;;;;;;1.67;1.00;;;;;8.34;100.00;100788.53;5058106;28;47590;-76
2023/02/25 09:51:47;;;;;;;;;3.33;2.33;;;;;8.41;100.00;100793.19;5058296;28;45248;-77
2023/02/25 09:54:44;;;;;;;;;5.00;3.33;;;;;8.49;100.00;100798.50;5058576;28;45322;-77
2023/02/25 09:57:17;;;;;;;;;3.33;2.33;;;;;8.42;100.00;100793.03;5053864;28;46399;-77
2023/02/25 09:59:45;;;;;;;;;3.33;2.33;;;;;8.41;100.00;100786.06;5059543;28;46210;-77
2023/02/25 10:02:26;;;;;;;;;5.33;4.00;;;;;8.55;100.00;100792.63;5057883;28;45496;-77
2023/02/25 10:05:20;;;;;;;;;3.33;2.00;;;;;8.65;100.00;100789.00;5056857;28;45345;-76
2023/02/25 10:07:58;;;;;;;;;4.00;3.00;;;;;8.73;100.00;100782.88;5051512;28;45496;-77
2023/02/25 10:10:33;;;;;;;;;2.00;2.00;;;;;8.83;100.00;100781.78;5054505;28;45532;-76
2023/02/25 10:13:17;;;;;;;;;2.00;2.00;;;;;8.92;100.00;100777.31;5045842;28;45380;-76
2023/02/25 10:15:42;;;;;;;;;2.33;1.00;;;;;9.05;100.00;100792.78;5072540;28;45299;-77
2023/02/25 10:18:20;;;;;;;;;2.00;2.00;;;;;9.24;100.00;100792.59;5040737;28;45520;-77
2023/02/25 10:20:45;;;;;;;;;3.67;2.00;;;;;9.37;100.00;100779.69;5072634;28;48074;-75
2023/02/25 10:23:45;;;;;;;;;3.00;3.00;;;;;9.44;100.00;100774.56;5059175;28;45476;-80
2023/02/25 10:26:16;;;;;;;;;3.67;2.00;;;;;9.59;100.00;100785.34;5059292;28;45394;-76
2023/02/25 10:28:46;;;;;;;;;3.67;3.00;;;;;9.66;100.00;100788.97;5057698;28;46007;-74
2023/02/25 10:31:15;;;;;;;;;3.00;3.00;;;;;9.66;100.00;100770.41;5057785;28;48351;-77
2023/02/25 10:33:44;;;;;;;;;5.67;4.67;;;;;9.75;100.00;100775.72;5059095;28;45572;-76
2023/02/25 10:36:26;;;;;;;;;2.00;1.33;;;;;9.85;100.00;100784.34;5058101;28;45270;-78
2023/02/25 10:38:53;;;;;;;;;2.67;1.67;;;;;9.80;100.00;100766.25;5057724;28;47020;-77
2023/02/25 10:41:21;;;;;;;;;3.00;3.00;;;;;9.94;100.00;100779.84;5057453;28;47292;-78
2023/02/25 10:43:49;;;;;;;;;2.33;2.33;;;;;10.01;99.56;100787.94;5057968;28;45279;-74
2023/02/25 10:46:20;;;;;;;;;5.67;4.00;;;;;10.09;99.91;100778.13;5058782;28;45280;-76
2023/02/25 10:49:14;;;;;;;;;5.00;4.00;;;;;10.20;99.81;100773.44;5042931;28;47318;-77
2023/02/25 10:51:56;;;;;;;;;3.00;3.00;;;;;10.29;97.35;100776.91;5041208;28;45490;-77
2023/02/25 10:54:23;;;;;;;;;3.50;3.50;;;;;10.29;96.96;100768.94;5058553;28;45257;-77
2023/02/25 10:56:49;;;;;;;;;3.00;3.00;;;;;10.35;95.50;100776.22;5057799;28;45336;-77
2023/02/25 10:59:33;;;;;;;;;6.67;4.67;;;;;10.42;96.44;100782.50;5057227;28;45963;-77
2023/02/25 11:02:00;;;;;;;;;4.00;3.33;;;;;10.44;94.75;100769.88;5058932;28;46279;-77
2023/02/25 11:04:35;;;;;;;;;1.33;1.33;;;;;10.50;94.61;100767.56;5057517;28;45469;-76
2023/02/25 11:07:01;;;;;;;;;1.67;1.33;;;;;10.63;94.63;100767.00;5058959;28;45292;-77
2023/02/25 11:09:29;;;;;;;;;3.00;3.00;;;;;10.65;94.11;100759.69;5057113;28;46790;-74
2023/02/25 11:11:57;;;;;;;;;2.00;1.00;;;;;10.63;91.75;100761.69;5058728;28;45664;-76
2023/02/25 11:14:27;;;;;;;;;5.00;2.67;;;;;10.56;92.16;100748.25;5058822;28;45388;-75
2023/02/25 11:17:01;;;;;;;;;2.67;2.00;;;;;10.45;92.12;100744.97;5057767;28;45276;-75
2023/02/25 11:19:30;;;;;;;;;1.67;1.67;;;;;10.52;90.45;100757.56;5057801;28;46208;-73
2023/02/25 11:21:59;;;;;;;;;5.67;4.67;;;;;10.46;86.90;100746.66;5059137;28;45502;-74
2023/02/25 11:24:37;;;;;;;;;1.67;1.67;;;;;10.48;86.08;100749.94;5057861;28;45308;-74
2023/02/25 11:27:05;;;;;;;;;2.67;2.67;;;;;10.52;87.01;100745.13;5058997;28;45265;-76
2023/02/25 11:29:37;;;;;;;;;2.33;2.33;;;;;10.62;88.63;100733.47;5057901;28;46153;-76
2023/02/25 11:32:16;;;;;;;;;4.67;3.00;;;;;10.77;87.89;100747.66;5059246;28;45253;-76